Weather reports worldwide

Advertisment
Monte Scuro, Italy (16344): temperature & dewpoint: 08.12.2018 00:00:00 - 14.12.2018 00:00:00 (CET)Monte Scuro, Italy (16344): wind speed: 08.12.2018 00:00:00 - 14.12.2018 00:00:00 (CET)Monte Scuro, Italy (16344): wind direction: 08.12.2018 00:00:00 - 14.12.2018 00:00:00 (CET)Monte Scuro, Italy (16344): visibility: 08.12.2018 00:00:00 - 14.12.2018 00:00:00 (CET)Monte Scuro, Italy (16344): sunshine duration: 08.12.2018 00:00:00 - 14.12.2018 00:00:00 (CET)
Date & Time tt [°C] td [°C] ff [km/h] ff [kn] dd vv [km] sd [min]
14.12.2018 00:00:00 2,2 2,2 22 12 W - -
13.12.2018 23:00:00 2,2 2,2 22 12 W - -
13.12.2018 22:00:00 2,2 2,2 22 12 W - -
13.12.2018 21:00:00 2,2 2,2 24 13 W - -
13.12.2018 20:00:00 2,2 2,2 26 14 W - -
13.12.2018 19:00:00 2,0 2,0 24 13 W - -
13.12.2018 18:00:00 2,0 2,0 26 14 W - -
13.12.2018 17:00:00 1,8 1,8 28 15 W - 0
13.12.2018 16:00:00 1,4 1,4 22 12 W - 0
13.12.2018 15:00:00 1,6 1,6 26 14 W - 0
13.12.2018 14:00:00 1,6 1,6 21 11 W - 0
13.12.2018 13:00:00 1,0 1,0 22 12 W - 0
13.12.2018 12:00:00 1,0 1,0 18 10 W - 0
13.12.2018 11:00:00 1,6 1,6 8 4 W - 0
13.12.2018 10:00:00 1,0 0,3 9 5 W - 0
13.12.2018 09:00:00 0,8 0,1 8 4 W - 0
13.12.2018 08:00:00 0,8 0,1 9 5 W - 0
13.12.2018 07:00:00 0,8 0,1 5 3 WSW - -
13.12.2018 06:00:00 0,6 -0,1 5 3 WNW - -
13.12.2018 05:00:00 0,6 -0,1 5 3 WNW - -
13.12.2018 04:00:00 0,8 0,1 9 5 W - -
13.12.2018 03:00:00 0,8 0,1 8 4 W - -
13.12.2018 02:00:00 1,0 0,3 5 3 NNE - -
13.12.2018 01:00:00 1,0 0,3 9 5 NNE - -
13.12.2018 00:00:00 1,0 0,3 5 3 NNE - -
12.12.2018 23:00:00 1,4 -0,8 5 3 SW 10 -
12.12.2018 22:00:00 1,4 -4,3 5 3 SSW 10 -
12.12.2018 21:00:00 1,4 -4,5 9 5 W 10 -
12.12.2018 20:00:00 1,2 -4,9 5 3 W 10 -
12.12.2018 19:00:00 0,0 -2,7 9 5 W 10 -
12.12.2018 18:00:00 0,0 -5,2 9 5 W 10 -
12.12.2018 17:00:00 -0,2 -2,7 8 4 W 15 0
12.12.2018 16:00:00 0,0 -3,7 9 5 W 20 12
12.12.2018 15:00:00 0,0 -1,1 8 4 W 20 0
12.12.2018 14:00:00 0,0 -1,4 5 3 W 15 0
12.12.2018 13:00:00 1,0 -3,1 8 4 W 20 18
12.12.2018 12:00:00 1,0 -3,1 8 4 W 20 30
12.12.2018 11:00:00 0,0 -4,1 5 3 W 20 0
12.12.2018 10:00:00 0,0 -4,8 16 9 W 20 0
12.12.2018 09:00:00 -1,0 -2,0 16 9 W 10 0
12.12.2018 08:00:00 -1,4 -4,7 9 5 W 25 60
12.12.2018 07:00:00 -1,6 -2,7 11 6 W 20 -
12.12.2018 06:00:00 -1,6 -4,9 15 8 WSW 10 -
12.12.2018 05:00:00 -1,6 -5,1 16 9 WSW 10 -
12.12.2018 04:00:00 -1,6 -5,1 15 8 SW 10 -
12.12.2018 03:00:00 -1,6 -5,1 16 9 W 10 -
12.12.2018 02:00:00 -1,6 -4,6 22 12 WSW 10 -
12.12.2018 01:00:00 -1,6 -4,6 26 14 WSW 10 -
12.12.2018 00:00:00 -1,6 -4,8 18 10 W 10 -
11.12.2018 23:00:00 -1,6 -5,1 21 11 WSW 10 -
11.12.2018 22:00:00 -1,6 -5,8 18 10 W 10 -
11.12.2018 21:00:00 -1,4 -4,9 18 10 WSW 10 -
11.12.2018 20:00:00 -1,4 -4,1 16 9 WSW 10 -
11.12.2018 19:00:00 -1,4 -3,3 21 11 W 10 -
11.12.2018 18:00:00 -1,0 -2,7 21 11 SW 10 -
11.12.2018 17:00:00 -1,4 -3,3 22 12 SW 10 30
11.12.2018 16:00:00 -0,4 -4,3 16 9 WSW 15 60
11.12.2018 15:00:00 -0,2 -3,4 15 8 WSW 10 42
11.12.2018 14:00:00 -0,2 -2,9 11 6 WSW 10 18
11.12.2018 13:00:00 -0,8 -3,3 11 6 NNE 10 30
11.12.2018 12:00:00 -1,2 -3,1 8 4 NNE 10 12
11.12.2018 11:00:00 -2,0 -2,8 8 4 NNE 0,3 12
11.12.2018 10:00:00 -1,6 -2,4 4 2 NNE 0,1 0
11.12.2018 09:00:00 -2,0 -2,3 4 2 NNE - 0
11.12.2018 08:00:00 -2,2 -2,5 8 4 NNE - 0
11.12.2018 07:00:00 -1,8 -1,9 11 6 NNE - -
11.12.2018 06:00:00 -1,2 -1,3 15 8 NNE - -
11.12.2018 05:00:00 -0,4 -0,7 4 2 N - -
11.12.2018 04:00:00 -0,4 -0,7 4 2 N - -
11.12.2018 03:00:00 -0,4 -0,7 11 6 N - -
11.12.2018 02:00:00 -0,4 -0,7 11 6 N - -
11.12.2018 01:00:00 -0,8 -3,8 8 4 NNW 10 -
11.12.2018 00:00:00 -0,8 -5,4 11 6 NNW 10 -
10.12.2018 23:00:00 -1,0 -2,4 0 0 N 10 -
10.12.2018 22:00:00 0,2 0,1 11 6 ENE - -
10.12.2018 21:00:00 0,2 0,1 8 4 ENE - -
10.12.2018 20:00:00 0,2 -0,1 13 7 ENE - -
10.12.2018 19:00:00 1,4 1,1 9 5 W 10 -
10.12.2018 18:00:00 1,4 1,0 9 5 W 10 0
10.12.2018 17:00:00 1,4 1,1 8 4 W - 0
10.12.2018 16:00:00 2,0 1,7 4 2 W - 0
10.12.2018 15:00:00 2,4 2,0 4 2 WNW 0,1 0
10.12.2018 14:00:00 3,2 2,5 15 8 W 15 0
10.12.2018 13:00:00 3,0 2,6 16 9 W 0,1 12
10.12.2018 12:00:00 3,4 3,0 15 8 W 20 60
10.12.2018 11:00:00 3,4 -0,6 15 8 W 25 60
10.12.2018 10:00:00 1,8 -3,1 9 5 W 25 60
10.12.2018 09:00:00 1,0 -2,1 5 3 W 25 60
10.12.2018 08:00:00 0,8 -3,1 5 3 W 20 18
10.12.2018 07:00:00 0,8 -0,8 8 4 W 15 -
10.12.2018 06:00:00 0,8 0,8 9 5 W - -
10.12.2018 05:00:00 0,8 0,8 9 5 WNW - -
10.12.2018 04:00:00 0,8 0,8 9 5 WNW - -
10.12.2018 03:00:00 1,8 1,8 9 5 NW - -
10.12.2018 02:00:00 2,8 2,8 22 12 W - -
10.12.2018 01:00:00 3,2 3,2 22 12 W - -
10.12.2018 00:00:00 3,4 3,4 34 18 W - -
09.12.2018 23:00:00 3,6 3,6 29 16 W - -
09.12.2018 22:00:00 4,0 4,0 29 16 W - -
09.12.2018 21:00:00 4,0 4,0 22 12 W - -
09.12.2018 20:00:00 4,0 4,0 28 15 W - -
09.12.2018 19:00:00 3,8 3,8 42 23 W - -
09.12.2018 18:00:00 3,8 3,8 22 12 W - -
09.12.2018 17:00:00 3,8 3,8 22 12 W - 0
09.12.2018 16:00:00 3,4 3,4 31 17 W - 0
09.12.2018 15:00:00 2,8 2,8 34 18 W - 0
09.12.2018 14:00:00 2,4 2,4 34 18 W - 0
09.12.2018 13:00:00 2,0 1,3 28 15 W - 0
09.12.2018 12:00:00 2,0 -0,6 18 10 W - 12
09.12.2018 11:00:00 1,8 -1,3 26 14 W 20 60
09.12.2018 10:00:00 1,2 1,2 34 18 WSW - 0
09.12.2018 09:00:00 0,8 0,8 34 18 W - 0
09.12.2018 08:00:00 0,8 -2,6 31 17 W 30 60
09.12.2018 07:00:00 1,0 -0,8 29 16 W 10 -
09.12.2018 06:00:00 1,0 1,0 34 18 W 10 -
09.12.2018 05:00:00 1,0 -0,5 31 17 W 10 -
09.12.2018 04:00:00 1,2 1,2 28 15 W - -
09.12.2018 03:00:00 1,4 1,4 29 16 W - -
09.12.2018 02:00:00 2,0 2,0 26 14 W - -
09.12.2018 01:00:00 2,0 2,0 28 15 W - -
09.12.2018 00:00:00 2,0 2,0 29 16 W - -
08.12.2018 23:00:00 2,2 2,2 31 17 W - -
08.12.2018 22:00:00 2,0 2,0 29 16 W - -
08.12.2018 21:00:00 2,0 2,0 29 16 W - -
08.12.2018 20:00:00 2,4 2,4 31 17 W - -
08.12.2018 19:00:00 2,4 2,4 34 18 W - -
08.12.2018 18:00:00 2,2 2,2 34 18 W - -
08.12.2018 17:00:00 2,4 2,4 34 18 W - -
08.12.2018 16:00:00 3,8 3,8 37 20 W - 0
08.12.2018 15:00:00 3,8 3,8 28 15 WSW - -
08.12.2018 14:00:00 4,0 4,0 28 15 W - 0
08.12.2018 13:00:00 3,8 3,8 35 19 W - 0
08.12.2018 12:00:00 3,0 3,0 35 19 W - 0
08.12.2018 11:00:00 3,0 3,0 34 18 WNW - 0
08.12.2018 10:00:00 2,8 2,2 31 17 W - 0
08.12.2018 09:00:00 1,8 1,1 24 13 W - 0
08.12.2018 08:00:00 1,6 0,0 29 16 WNW 10 0
08.12.2018 07:00:00 1,6 1,2 29 16 WNW - 0
08.12.2018 06:00:00 2,0 1,6 28 15 WNW - -
08.12.2018 05:00:00 2,0 1,7 28 15 WNW - -
08.12.2018 04:00:00 2,0 2,0 24 13 W - -
08.12.2018 03:00:00 2,0 0,8 24 13 WNW 2,0 -
08.12.2018 02:00:00 3,4 -3,0 29 16 WNW 10 -
08.12.2018 01:00:00 3,4 -3,6 29 16 WNW 10 -
08.12.2018 00:00:00 3,8 -3,2 29 16 W 10 -

tt = temperature
td = dewpoint
ff = wind speed
dd = wind direction
vv = visibility
sd = sunshine duration

Next stations